»·PEaware :: N305PW KVNY-KBUR

N305PW :: KVNY-KBUR

FLIGHT INFORMATION

Flight Status: Arrived
Operator: Privately registered:
United States
More flights under this callsign
Pilot: Paul W. (27512)
Aircraft: CESSNA 172 SKYHAWK
(C172)
More flights by this aircraft type
Origin: KVNY Van Nuys
United States
Destination: KBUR Bob Hope-Burbank
United States
More flights between these airports :: More routes between these airports
Route: CANOG
File this flight plan on PilotEdge
Remarks: TEC route EDWP4
Altitude:
(Current/Filed)
4,000ft
Speed:
(Current/Filed)
110kts
Departed: 09-Dec-20 09:40 PM
Arrived: 09-Dec-20 10:15 PM
Distance/Time
Traveled:
6nm/0:35
Distance/Time
To Go:
Arrived

Flight Plot

Page will automatically refresh every two minutes.


Map Options




Map Legend


Flown Route
Filed Route
Departure Airport
Arrival Airport
Navaid (VOR, NDB)
Fix

Horizontal Profiles

Position Reports

Time Latitude Longitude Heading Altitude Ground
Speed
09-Dec-20 21:06 34.218333 -118.494297 175 806ft 0kts
09-Dec-20 21:07 34.218333 -118.494297 175 806ft 0kts
09-Dec-20 21:08 34.218333 -118.494297 175 806ft 0kts
09-Dec-20 21:09 34.218333 -118.494297 175 806ft 0kts
09-Dec-20 21:10 34.218333 -118.494297 175 806ft 0kts
09-Dec-20 21:11 34.218333 -118.494297 175 806ft 0kts
09-Dec-20 21:12 34.218333 -118.494297 175 806ft 0kts
09-Dec-20 21:13 34.218333 -118.494297 175 806ft 0kts
09-Dec-20 21:14 34.218333 -118.494297 175 806ft 0kts
09-Dec-20 21:15 34.218333 -118.494297 175 806ft 0kts
09-Dec-20 21:16 34.218333 -118.494297 175 806ft 0kts
09-Dec-20 21:17 34.218333 -118.494297 175 806ft 0kts
09-Dec-20 21:18 34.218333 -118.494297 175 806ft 0kts
09-Dec-20 21:19 34.218333 -118.494297 175 806ft 0kts
09-Dec-20 21:20 34.218333 -118.494297 175 806ft 0kts
09-Dec-20 21:22 34.218333 -118.494297 175 806ft 0kts
09-Dec-20 21:23 34.218333 -118.494297 175 806ft 0kts
09-Dec-20 21:24 34.218333 -118.494297 175 806ft 0kts
09-Dec-20 21:25 34.218333 -118.494297 175 806ft 0kts
09-Dec-20 21:26 34.218333 -118.494297 175 806ft 0kts
09-Dec-20 21:27 34.218333 -118.494297 175 806ft 0kts
09-Dec-20 21:28 34.218333 -118.494297 175 806ft 0kts
09-Dec-20 21:29 34.218333 -118.494297 175 806ft 0kts
09-Dec-20 21:30 34.218333 -118.494297 175 806ft 0kts
09-Dec-20 21:31 34.218333 -118.494297 175 806ft 0kts
09-Dec-20 21:32 34.218333 -118.494297 175 806ft 0kts
09-Dec-20 21:33 34.218332 -118.494297 174 806ft 0kts
09-Dec-20 21:34 34.217255 -118.492391 48 806ft 10kts
09-Dec-20 21:35 34.219213 -118.492448 159 806ft 0kts
09-Dec-20 21:36 34.219184 -118.492435 159 806ft 0kts
09-Dec-20 21:37 34.219184 -118.492435 159 806ft 0kts
09-Dec-20 21:38 34.219184 -118.492435 159 806ft 0kts
09-Dec-20 21:38 34.218985 -118.492247 121 806ft 8kts
09-Dec-20 21:40 34.203560 -118.489583 177 1260ft 87kts
09-Dec-20 21:41 34.182266 -118.480048 121 2301ft 81kts
09-Dec-20 21:41 34.170677 -118.459739 122 2962ft 99kts
09-Dec-20 21:43 34.151373 -118.429059 119 3900ft 107kts
09-Dec-20 21:43 34.138227 -118.405057 114 3936ft 101kts
09-Dec-20 21:44 34.121906 -118.411017 275 4255ft 88kts
09-Dec-20 21:45 34.120338 -118.442104 268 4871ft 89kts
09-Dec-20 21:46 34.116766 -118.470564 267 4874ft 87kts
09-Dec-20 21:47 34.113703 -118.499083 260 5011ft 88kts
09-Dec-20 21:48 34.119536 -118.526850 334 5050ft 82kts
09-Dec-20 21:49 34.134757 -118.517774 301 5064ft 88kts
09-Dec-20 21:50 34.153323 -118.537553 324 4978ft 88kts
09-Dec-20 21:51 34.171584 -118.557304 320 5038ft 88kts
09-Dec-20 21:52 34.188849 -118.580271 310 5067ft 89kts
09-Dec-20 21:53 34.207777 -118.602967 325 5002ft 93kts
09-Dec-20 21:54 34.212673 -118.630451 278 5039ft 86kts
09-Dec-20 21:55 34.215825 -118.661590 292 4959ft 98kts
09-Dec-20 21:56 34.224586 -118.692573 276 4972ft 96kts
09-Dec-20 21:57 34.217383 -118.723531 224 4994ft 100kts
09-Dec-20 21:58 34.202260 -118.749990 285 4980ft 91kts
09-Dec-20 21:59 34.220291 -118.746555 51 5024ft 93kts
09-Dec-20 22:00 34.220529 -118.712899 86 4921ft 105kts
09-Dec-20 22:01 34.222167 -118.678549 82 4912ft 99kts
09-Dec-20 22:02 34.223626 -118.649944 88 4460ft 79kts
09-Dec-20 22:03 34.223634 -118.623969 82 3787ft 78kts
09-Dec-20 22:04 34.226708 -118.600271 69 3458ft 76kts
09-Dec-20 22:05 34.224055 -118.574978 103 3415ft 79kts
09-Dec-20 22:06 34.221837 -118.549452 86 3236ft 74kts
09-Dec-20 22:07 34.222131 -118.523945 75 3031ft 70kts
09-Dec-20 22:08 34.224065 -118.499192 82 3026ft 77kts
09-Dec-20 22:09 34.219227 -118.472602 96 2940ft 83kts
09-Dec-20 22:10 34.212795 -118.445582 94 2186ft 84kts
09-Dec-20 22:11 34.206894 -118.418597 102 1508ft 82kts
09-Dec-20 22:12 34.199129 -118.393007 109 1219ft 81kts
09-Dec-20 22:13 34.197872 -118.369569 82 782ft 68kts
09-Dec-20 22:14 34.196974 -118.364761 206 719ft 0kts
09-Dec-20 22:15 34.195864 -118.365860 17 720ft 4kts
09-Dec-20 22:16 34.196036 -118.365609 64 719ft 0kts
09-Dec-20 22:17 34.196036 -118.365609 64 719ft 0kts
09-Dec-20 22:18 34.196036 -118.365609 64 719ft 0kts

Navigation Log

Ident Type
Flight plan parsing failed, navigation log unavailable